sensor_id;sensor_type;location;lat;lon;timestamp;pressure;altitude;pressure_sealevel;temperature;humidity
37202;BME280;37799;52.390;6.136;2023-01-27T00:00:12;102566.94;;;3.78;100.00
37202;BME280;37799;52.390;6.136;2023-01-27T00:02:39;102565.84;;;3.72;100.00
37202;BME280;37799;52.390;6.136;2023-01-27T00:05:05;102562.97;;;3.61;100.00
37202;BME280;37799;52.390;6.136;2023-01-27T00:07:31;102562.97;;;3.61;100.00
37202;BME280;37799;52.390;6.136;2023-01-27T00:09:56;102557.88;;;3.63;100.00
37202;BME280;37799;52.390;6.136;2023-01-27T00:12:24;102563.00;;;3.63;100.00
37202;BME280;37799;52.390;6.136;2023-01-27T00:15:09;102564.63;;;3.59;100.00
37202;BME280;37799;52.390;6.136;2023-01-27T00:17:35;102566.66;;;3.69;100.00
37202;BME280;37799;52.390;6.136;2023-01-27T00:20:01;102559.09;;;3.74;100.00
37202;BME280;37799;52.390;6.136;2023-01-27T00:22:26;102562.00;;;3.58;100.00
37202;BME280;37799;52.390;6.136;2023-01-27T00:25:10;102564.25;;;3.47;100.00
37202;BME280;37799;52.390;6.136;2023-01-27T00:27:36;102556.59;;;3.48;100.00
37202;BME280;37799;52.390;6.136;2023-01-27T00:30:01;102555.34;;;3.36;100.00
37202;BME280;37799;52.390;6.136;2023-01-27T00:32:29;102556.34;;;3.39;100.00
37202;BME280;37799;52.390;6.136;2023-01-27T00:35:13;102560.00;;;3.47;100.00
37202;BME280;37799;52.390;6.136;2023-01-27T00:37:41;102565.13;;;3.47;100.00
37202;BME280;37799;52.390;6.136;2023-01-27T00:40:06;102573.91;;;3.55;100.00
37202;BME280;37799;52.390;6.136;2023-01-27T00:42:32;102572.78;;;3.47;100.00
37202;BME280;37799;52.390;6.136;2023-01-27T00:44:57;102576.84;;;3.39;100.00
37202;BME280;37799;52.390;6.136;2023-01-27T00:47:41;102566.38;;;3.33;100.00
37202;BME280;37799;52.390;6.136;2023-01-27T00:50:07;102575.28;;;3.44;100.00
37202;BME280;37799;52.390;6.136;2023-01-27T00:52:32;102579.53;;;3.44;100.00
37202;BME280;37799;52.390;6.136;2023-01-27T00:54:57;102578.59;;;3.69;100.00
37202;BME280;37799;52.390;6.136;2023-01-27T00:57:23;102574.19;;;3.65;100.00
37202;BME280;37799;52.390;6.136;2023-01-27T00:59:48;102585.81;;;3.53;100.00
37202;BME280;37799;52.390;6.136;2023-01-27T01:02:13;102578.94;;;3.52;100.00
37202;BME280;37799;52.390;6.136;2023-01-27T01:04:39;102577.69;;;3.40;100.00
37202;BME280;37799;52.390;6.136;2023-01-27T01:07:04;102593.56;;;3.57;100.00
37202;BME280;37799;52.390;6.136;2023-01-27T01:09:29;102592.13;;;3.65;100.00
37202;BME280;37799;52.390;6.136;2023-01-27T01:11:55;102591.81;;;3.54;100.00
37202;BME280;37799;52.390;6.136;2023-01-27T01:14:20;102593.09;;;3.41;100.00
37202;BME280;37799;52.390;6.136;2023-01-27T01:16:45;102592.19;;;3.39;100.00
37202;BME280;37799;52.390;6.136;2023-01-27T01:19:10;102601.78;;;3.46;100.00
37202;BME280;37799;52.390;6.136;2023-01-27T01:21:36;102593.25;;;3.46;100.00
37202;BME280;37799;52.390;6.136;2023-01-27T01:24:02;102605.34;;;3.51;100.00
37202;BME280;37799;52.390;6.136;2023-01-27T01:26:27;102607.50;;;3.65;100.00
37202;BME280;37799;52.390;6.136;2023-01-27T01:28:52;102608.59;;;3.73;100.00
37202;BME280;37799;52.390;6.136;2023-01-27T01:31:18;102604.34;;;3.46;100.00
37202;BME280;37799;52.390;6.136;2023-01-27T01:33:45;102606.31;;;3.53;100.00
37202;BME280;37799;52.390;6.136;2023-01-27T01:36:13;102607.31;;;3.59;100.00
37202;BME280;37799;52.390;6.136;2023-01-27T01:38:38;102609.78;;;3.55;100.00
37202;BME280;37799;52.390;6.136;2023-01-27T01:41:05;102615.19;;;3.65;100.00
37202;BME280;37799;52.390;6.136;2023-01-27T01:43:31;102616.69;;;3.58;100.00
37202;BME280;37799;52.390;6.136;2023-01-27T01:45:58;102614.84;;;3.54;100.00
37202;BME280;37799;52.390;6.136;2023-01-27T01:48:50;102613.28;;;3.59;100.00
37202;BME280;37799;52.390;6.136;2023-01-27T01:51:21;102613.53;;;3.67;100.00
37202;BME280;37799;52.390;6.136;2023-01-27T01:56:36;102608.94;;;3.57;100.00
37202;BME280;37799;52.390;6.136;2023-01-27T01:59:08;102612.81;;;3.44;100.00
37202;BME280;37799;52.390;6.136;2023-01-27T02:01:34;102626.53;;;3.73;100.00
37202;BME280;37799;52.390;6.136;2023-01-27T02:04:04;102619.72;;;3.73;100.00
37202;BME280;37799;52.390;6.136;2023-01-27T02:06:58;102621.84;;;3.60;100.00
37202;BME280;37799;52.390;6.136;2023-01-27T02:09:21;102617.88;;;3.69;100.00
37202;BME280;37799;52.390;6.136;2023-01-27T02:11:47;102633.53;;;3.51;100.00
37202;BME280;37799;52.390;6.136;2023-01-27T02:14:15;102625.09;;;3.54;100.00
37202;BME280;37799;52.390;6.136;2023-01-27T02:16:41;102625.22;;;3.59;100.00
37202;BME280;37799;52.390;6.136;2023-01-27T02:19:10;102627.84;;;3.60;100.00
37202;BME280;37799;52.390;6.136;2023-01-27T02:21:38;102624.34;;;3.58;100.00
37202;BME280;37799;52.390;6.136;2023-01-27T02:24:04;102626.78;;;3.53;100.00
37202;BME280;37799;52.390;6.136;2023-01-27T02:26:39;102630.31;;;3.57;100.00
37202;BME280;37799;52.390;6.136;2023-01-27T02:29:09;102626.44;;;3.70;100.00
37202;BME280;37799;52.390;6.136;2023-01-27T02:31:35;102624.31;;;3.57;100.00
37202;BME280;37799;52.390;6.136;2023-01-27T02:34:13;102626.88;;;3.57;100.00
37202;BME280;37799;52.390;6.136;2023-01-27T02:36:44;102620.78;;;3.80;100.00
37202;BME280;37799;52.390;6.136;2023-01-27T02:39:13;102619.53;;;3.67;100.00
37202;BME280;37799;52.390;6.136;2023-01-27T02:41:41;102623.00;;;3.69;100.00
37202;BME280;37799;52.390;6.136;2023-01-27T02:44:07;102629.63;;;3.63;100.00
37202;BME280;37799;52.390;6.136;2023-01-27T02:46:34;102628.00;;;3.65;100.00
37202;BME280;37799;52.390;6.136;2023-01-27T02:48:59;102634.41;;;3.79;100.00
37202;BME280;37799;52.390;6.136;2023-01-27T02:51:25;102629.63;;;3.63;100.00
37202;BME280;37799;52.390;6.136;2023-01-27T02:53:50;102626.44;;;3.70;100.00
37202;BME280;37799;52.390;6.136;2023-01-27T02:56:16;102626.34;;;3.67;100.00
37202;BME280;37799;52.390;6.136;2023-01-27T02:58:41;102629.47;;;3.58;100.00
37202;BME280;37799;52.390;6.136;2023-01-27T03:01:07;102627.34;;;3.72;100.00
37202;BME280;37799;52.390;6.136;2023-01-27T03:03:32;102637.16;;;3.85;100.00
37202;BME280;37799;52.390;6.136;2023-01-27T03:05:57;102633.16;;;3.66;100.00
37202;BME280;37799;52.390;6.136;2023-01-27T03:08:23;102634.03;;;3.67;100.00
37202;BME280;37799;52.390;6.136;2023-01-27T03:10:50;102631.44;;;3.65;100.00
37202;BME280;37799;52.390;6.136;2023-01-27T03:13:15;102635.88;;;3.71;100.00
37202;BME280;37799;52.390;6.136;2023-01-27T03:15:41;102637.50;;;3.69;100.00
37202;BME280;37799;52.390;6.136;2023-01-27T03:18:25;102632.38;;;3.69;100.00
37202;BME280;37799;52.390;6.136;2023-01-27T03:20:50;102632.47;;;3.72;100.00
37202;BME280;37799;52.390;6.136;2023-01-27T03:23:18;102629.78;;;3.67;100.00
37202;BME280;37799;52.390;6.136;2023-01-27T03:25:45;102632.69;;;3.78;100.00
37202;BME280;37799;52.390;6.136;2023-01-27T03:28:12;102634.78;;;3.64;100.00
37202;BME280;37799;52.390;6.136;2023-01-27T03:30:38;102639.34;;;3.73;100.00
37202;BME280;37799;52.390;6.136;2023-01-27T03:33:04;102628.03;;;3.66;100.00
37202;BME280;37799;52.390;6.136;2023-01-27T03:35:33;102635.94;;;3.74;100.00
37202;BME280;37799;52.390;6.136;2023-01-27T03:38:06;102632.47;;;3.72;100.00
37202;BME280;37799;52.390;6.136;2023-01-27T03:40:53;102635.03;;;3.72;100.00
37202;BME280;37799;52.390;6.136;2023-01-27T03:43:37;102639.19;;;3.68;100.00
37202;BME280;37799;52.390;6.136;2023-01-27T03:46:21;102636.47;;;3.64;100.00
37202;BME280;37799;52.390;6.136;2023-01-27T03:48:48;102640.91;;;3.68;100.00
37202;BME280;37799;52.390;6.136;2023-01-27T03:51:14;102642.53;;;3.66;100.00
37202;BME280;37799;52.390;6.136;2023-01-27T03:53:40;102647.66;;;3.66;100.00
37202;BME280;37799;52.390;6.136;2023-01-27T03:56:06;102649.97;;;3.58;100.00
37202;BME280;37799;52.390;6.136;2023-01-27T03:58:33;102650.94;;;3.62;100.00
37202;BME280;37799;52.390;6.136;2023-01-27T04:01:02;102644.81;;;3.57;100.00
37202;BME280;37799;52.390;6.136;2023-01-27T04:03:30;102651.81;;;3.62;100.00
37202;BME280;37799;52.390;6.136;2023-01-27T04:06:17;102652.72;;;3.64;100.00
37202;BME280;37799;52.390;6.136;2023-01-27T04:09:02;102653.53;;;3.63;100.00
37202;BME280;37799;52.390;6.136;2023-01-27T04:11:28;102658.47;;;3.84;100.00
37202;BME280;37799;52.390;6.136;2023-01-27T04:14:13;102653.63;;;3.65;100.00
37202;BME280;37799;52.390;6.136;2023-01-27T04:16:38;102663.09;;;3.67;100.00
37202;BME280;37799;52.390;6.136;2023-01-27T04:19:06;102661.47;;;3.71;100.00
37202;BME280;37799;52.390;6.136;2023-01-27T04:21:32;102655.22;;;3.63;100.00
37202;BME280;37799;52.390;6.136;2023-01-27T04:23:58;102664.13;;;3.74;100.00
37202;BME280;37799;52.390;6.136;2023-01-27T04:26:24;102659.91;;;3.76;100.00
37202;BME280;37799;52.390;6.136;2023-01-27T04:28:49;102662.53;;;3.77;100.00
37202;BME280;37799;52.390;6.136;2023-01-27T04:31:16;102669.91;;;3.67;100.00
37202;BME280;37799;52.390;6.136;2023-01-27T04:33:42;102667.47;;;3.71;100.00
37202;BME280;37799;52.390;6.136;2023-01-27T04:36:08;102665.72;;;3.70;100.00
37202;BME280;37799;52.390;6.136;2023-01-27T04:38:33;102659.00;;;3.74;100.00
37202;BME280;37799;52.390;6.136;2023-01-27T04:40:59;102663.06;;;3.94;100.00
37202;BME280;37799;52.390;6.136;2023-01-27T04:43:24;102661.94;;;3.86;100.00
37202;BME280;37799;52.390;6.136;2023-01-27T04:45:49;102668.56;;;3.78;100.00
37202;BME280;37799;52.390;6.136;2023-01-27T04:48:15;102671.91;;;3.77;100.00
37202;BME280;37799;52.390;6.136;2023-01-27T04:50:40;102664.88;;;3.70;100.00
37202;BME280;37799;52.390;6.136;2023-01-27T04:53:05;102662.34;;;3.71;100.00
37202;BME280;37799;52.390;6.136;2023-01-27T04:55:31;102668.34;;;3.72;100.00
37202;BME280;37799;52.390;6.136;2023-01-27T04:57:56;102666.13;;;3.82;100.00
37202;BME280;37799;52.390;6.136;2023-01-27T05:00:21;102661.94;;;3.86;100.00
37202;BME280;37799;52.390;6.136;2023-01-27T05:02:47;102672.13;;;3.83;100.00
37202;BME280;37799;52.390;6.136;2023-01-27T05:05:12;102672.06;;;3.81;100.00
37202;BME280;37799;52.390;6.136;2023-01-27T05:07:38;102673.13;;;3.88;100.00
37202;BME280;37799;52.390;6.136;2023-01-27T05:10:04;102678.03;;;3.80;100.00
37202;BME280;37799;52.390;6.136;2023-01-27T05:12:30;102674.16;;;3.93;100.00
37202;BME280;37799;52.390;6.136;2023-01-27T05:14:55;102680.97;;;3.93;100.00
37202;BME280;37799;52.390;6.136;2023-01-27T05:17:21;102691.44;;;4.00;100.00
37202;BME280;37799;52.390;6.136;2023-01-27T05:19:46;102679.34;;;3.96;100.00
37202;BME280;37799;52.390;6.136;2023-01-27T05:22:11;102682.63;;;3.91;100.00
37202;BME280;37799;52.390;6.136;2023-01-27T05:24:37;102691.22;;;3.93;100.00
37202;BME280;37799;52.390;6.136;2023-01-27T05:27:03;102683.03;;;3.77;100.00
37202;BME280;37799;52.390;6.136;2023-01-27T05:29:28;102684.72;;;4.04;100.00
37202;BME280;37799;52.390;6.136;2023-01-27T05:31:53;102685.09;;;3.89;100.00
37202;BME280;37799;52.390;6.136;2023-01-27T05:34:19;102697.81;;;3.86;100.00
37202;BME280;37799;52.390;6.136;2023-01-27T05:36:44;102691.88;;;3.87;100.00
37202;BME280;37799;52.390;6.136;2023-01-27T05:39:10;102682.84;;;3.71;100.00
37202;BME280;37799;52.390;6.136;2023-01-27T05:41:36;102690.50;;;3.70;100.00
37202;BME280;37799;52.390;6.136;2023-01-27T05:44:01;102695.63;;;3.70;100.00
37202;BME280;37799;52.390;6.136;2023-01-27T05:46:29;102700.03;;;3.75;100.00
37202;BME280;37799;52.390;6.136;2023-01-27T05:48:58;102696.56;;;3.73;100.00
37202;BME280;37799;52.390;6.136;2023-01-27T05:51:25;102706.78;;;3.72;100.00
37202;BME280;37799;52.390;6.136;2023-01-27T05:53:52;102697.53;;;3.77;100.00
37202;BME280;37799;52.390;6.136;2023-01-27T05:56:20;102704.50;;;3.81;100.00
37202;BME280;37799;52.390;6.136;2023-01-27T05:58:45;102706.72;;;3.70;100.00
37202;BME280;37799;52.390;6.136;2023-01-27T06:01:22;102712.84;;;3.75;100.00
37202;BME280;37799;52.390;6.136;2023-01-27T06:03:48;102716.25;;;3.74;100.00
37202;BME280;37799;52.390;6.136;2023-01-27T06:06:15;102716.00;;;3.67;100.00
37202;BME280;37799;52.390;6.136;2023-01-27T06:08:41;102722.97;;;3.71;100.00
37202;BME280;37799;52.390;6.136;2023-01-27T06:11:07;102716.00;;;3.67;100.00
37202;BME280;37799;52.390;6.136;2023-01-27T06:13:33;102720.50;;;3.74;100.00
37202;BME280;37799;52.390;6.136;2023-01-27T06:16:01;102724.56;;;3.67;100.00
37202;BME280;37799;52.390;6.136;2023-01-27T06:18:27;102728.19;;;3.74;100.00
37202;BME280;37799;52.390;6.136;2023-01-27T06:20:56;102721.31;;;3.73;100.00
37202;BME280;37799;52.390;6.136;2023-01-27T06:23:23;102728.00;;;3.68;100.00
37202;BME280;37799;52.390;6.136;2023-01-27T06:25:48;102729.31;;;3.82;100.00
37202;BME280;37799;52.390;6.136;2023-01-27T06:28:14;102733.63;;;3.58;100.00
37202;BME280;37799;52.390;6.136;2023-01-27T06:30:40;102738.84;;;3.61;100.00
37202;BME280;37799;52.390;6.136;2023-01-27T06:33:06;102739.69;;;3.60;100.00
37202;BME280;37799;52.390;6.136;2023-01-27T06:35:32;102737.75;;;3.52;100.00
37202;BME280;37799;52.390;6.136;2023-01-27T06:37:58;102728.94;;;3.44;100.00
37202;BME280;37799;52.390;6.136;2023-01-27T06:40:25;102725.63;;;3.48;100.00
37202;BME280;37799;52.390;6.136;2023-01-27T06:42:51;102735.28;;;3.55;100.00
37202;BME280;37799;52.390;6.136;2023-01-27T06:45:16;102744.63;;;3.53;100.00
37202;BME280;37799;52.390;6.136;2023-01-27T06:47:41;102732.31;;;3.43;100.00
37202;BME280;37799;52.390;6.136;2023-01-27T06:50:08;102735.97;;;3.51;100.00
37202;BME280;37799;52.390;6.136;2023-01-27T06:52:34;102748.78;;;3.51;100.00
37202;BME280;37799;52.390;6.136;2023-01-27T06:55:00;102729.94;;;3.49;100.00
37202;BME280;37799;52.390;6.136;2023-01-27T06:57:26;102736.75;;;3.49;100.00
37202;BME280;37799;52.390;6.136;2023-01-27T06:59:52;102741.63;;;3.41;100.00
37202;BME280;37799;52.390;6.136;2023-01-27T07:02:17;102744.19;;;3.41;100.00
37202;BME280;37799;52.390;6.136;2023-01-27T07:04:42;102744.47;;;3.50;100.00
37202;BME280;37799;52.390;6.136;2023-01-27T07:07:08;102744.97;;;3.39;100.00
37202;BME280;37799;52.390;6.136;2023-01-27T07:09:33;102747.25;;;3.31;100.00
37202;BME280;37799;52.390;6.136;2023-01-27T07:11:58;102757.59;;;3.10;100.00
37202;BME280;37799;52.390;6.136;2023-01-27T07:14:23;102762.69;;;3.09;100.00
37202;BME280;37799;52.390;6.136;2023-01-27T07:16:49;102755.88;;;3.09;100.00
37202;BME280;37799;52.390;6.136;2023-01-27T07:19:14;102758.00;;;2.97;100.00
37202;BME280;37799;52.390;6.136;2023-01-27T07:21:41;102757.59;;;2.86;100.00
37202;BME280;37799;52.390;6.136;2023-01-27T07:24:06;102765.53;;;2.70;100.00
37202;BME280;37799;52.390;6.136;2023-01-27T07:26:32;102763.69;;;2.66;100.00
37202;BME280;37799;52.390;6.136;2023-01-27T07:28:57;102764.16;;;2.56;100.00
37202;BME280;37799;52.390;6.136;2023-01-27T07:31:22;102766.25;;;2.44;100.00
37202;BME280;37799;52.390;6.136;2023-01-27T07:33:47;102761.66;;;2.35;100.00
37202;BME280;37799;52.390;6.136;2023-01-27T07:36:13;102769.38;;;2.36;100.00
37202;BME280;37799;52.390;6.136;2023-01-27T07:38:38;102778.38;;;2.27;100.00
37202;BME280;37799;52.390;6.136;2023-01-27T07:41:04;102777.13;;;2.17;100.00
37202;BME280;37799;52.390;6.136;2023-01-27T07:43:31;102768.31;;;2.09;100.00
37202;BME280;37799;52.390;6.136;2023-01-27T07:45:56;102783.44;;;2.04;100.00
37202;BME280;37799;52.390;6.136;2023-01-27T07:48:22;102787.56;;;2.01;100.00
37202;BME280;37799;52.390;6.136;2023-01-27T07:50:47;102785.78;;;1.98;100.00
37202;BME280;37799;52.390;6.136;2023-01-27T07:53:12;102788.94;;;1.93;100.00
37202;BME280;37799;52.390;6.136;2023-01-27T07:55:38;102790.81;;;1.97;100.00
37202;BME280;37799;52.390;6.136;2023-01-27T07:58:04;102782.53;;;2.02;100.00
37202;BME280;37799;52.390;6.136;2023-01-27T08:00:30;102778.41;;;2.06;100.00
37202;BME280;37799;52.390;6.136;2023-01-27T08:02:57;102785.63;;;2.16;100.00
37202;BME280;37799;52.390;6.136;2023-01-27T08:05:23;102781.97;;;2.32;100.00
37202;BME280;37799;52.390;6.136;2023-01-27T08:07:49;102783.50;;;2.27;100.00
37202;BME280;37799;52.390;6.136;2023-01-27T08:10:16;102796.34;;;2.28;100.00
37202;BME280;37799;52.390;6.136;2023-01-27T08:12:43;102793.94;;;2.33;100.00
37202;BME280;37799;52.390;6.136;2023-01-27T08:15:09;102795.56;;;2.31;100.00
37202;BME280;37799;52.390;6.136;2023-01-27T08:17:34;102804.53;;;2.42;100.00
37202;BME280;37799;52.390;6.136;2023-01-27T08:20:00;102808.03;;;2.66;100.00
37202;BME280;37799;52.390;6.136;2023-01-27T08:22:27;102811.53;;;2.91;100.00
37202;BME280;37799;52.390;6.136;2023-01-27T08:24:52;102819.44;;;3.21;100.00
37202;BME280;37799;52.390;6.136;2023-01-27T08:27:17;102813.72;;;3.28;100.00
37202;BME280;37799;52.390;6.136;2023-01-27T08:29:43;102812.25;;;3.35;100.00
37202;BME280;37799;52.390;6.136;2023-01-27T08:32:09;102808.03;;;3.37;100.00
37202;BME280;37799;52.390;6.136;2023-01-27T08:34:35;102817.47;;;3.38;100.00
37202;BME280;37799;52.390;6.136;2023-01-27T08:37:00;102805.00;;;3.23;100.00
37202;BME280;37799;52.390;6.136;2023-01-27T08:39:26;102807.44;;;3.20;100.00
37202;BME280;37799;52.390;6.136;2023-01-27T08:41:51;102817.22;;;3.30;100.00
37202;BME280;37799;52.390;6.136;2023-01-27T08:44:17;102811.16;;;3.28;100.00
37202;BME280;37799;52.390;6.136;2023-01-27T08:46:42;102814.03;;;3.37;100.00
37202;BME280;37799;52.390;6.136;2023-01-27T08:49:07;102815.47;;;3.29;100.00
37202;BME280;37799;52.390;6.136;2023-01-27T08:51:33;102821.56;;;3.33;100.00
37202;BME280;37799;52.390;6.136;2023-01-27T08:53:58;102826.72;;;3.34;100.00
37202;BME280;37799;52.390;6.136;2023-01-27T08:56:24;102826.41;;;3.49;100.00
37202;BME280;37799;52.390;6.136;2023-01-27T08:58:49;102831.41;;;3.70;100.00
37202;BME280;37799;52.390;6.136;2023-01-27T09:01:17;102835.75;;;3.72;100.00
37202;BME280;37799;52.390;6.136;2023-01-27T09:03:43;102829.84;;;3.75;100.00
37202;BME280;37799;52.390;6.136;2023-01-27T09:06:10;102847.78;;;3.75;100.00
37202;BME280;37799;52.390;6.136;2023-01-27T09:08:35;102840.63;;;3.90;100.00
37202;BME280;37799;52.390;6.136;2023-01-27T09:11:08;102846.56;;;3.89;100.00
37202;BME280;37799;52.390;6.136;2023-01-27T09:13:34;102843.13;;;3.89;100.00
37202;BME280;37799;52.390;6.136;2023-01-27T09:15:59;102848.31;;;3.90;100.00
37202;BME280;37799;52.390;6.136;2023-01-27T09:18:25;102846.56;;;3.89;100.00
37202;BME280;37799;52.390;6.136;2023-01-27T09:20:50;102849.84;;;3.85;100.00
37202;BME280;37799;52.390;6.136;2023-01-27T09:23:16;102852.69;;;3.93;100.00
37202;BME280;37799;52.390;6.136;2023-01-27T09:25:41;102859.03;;;4.04;100.00
37202;BME280;37799;52.390;6.136;2023-01-27T09:28:06;102855.72;;;4.06;100.00
37202;BME280;37799;52.390;6.136;2023-01-27T09:30:41;102864.41;;;4.11;100.00
37202;BME280;37799;52.390;6.136;2023-01-27T09:33:06;102865.09;;;4.06;100.00
37202;BME280;37799;52.390;6.136;2023-01-27T09:35:38;102865.78;;;4.02;100.00
37202;BME280;37799;52.390;6.136;2023-01-27T09:38:05;102865.13;;;4.07;100.00
37202;BME280;37799;52.390;6.136;2023-01-27T09:41:03;102868.75;;;4.14;100.00
37202;BME280;37799;52.390;6.136;2023-01-27T09:46:20;102870.81;;;4.24;100.00
37202;BME280;37799;52.390;6.136;2023-01-27T09:54:19;102873.91;;;4.41;100.00
37202;BME280;37799;52.390;6.136;2023-01-27T09:59:22;102874.06;;;4.72;100.00
37202;BME280;37799;52.390;6.136;2023-01-27T10:10:32;102882.03;;;4.82;100.00
37202;BME280;37799;52.390;6.136;2023-01-27T10:13:23;102870.84;;;4.80;100.00
37202;BME280;37799;52.390;6.136;2023-01-27T10:16:07;102873.81;;;4.65;100.00
37202;BME280;37799;52.390;6.136;2023-01-27T10:18:48;102875.88;;;4.77;100.00
37202;BME280;37799;52.390;6.136;2023-01-27T10:24:26;102877.91;;;4.87;100.00
37202;BME280;37799;52.390;6.136;2023-01-27T10:26:48;102877.13;;;4.89;100.00
37202;BME280;37799;52.390;6.136;2023-01-27T10:29:20;102866.72;;;4.85;100.00
37202;BME280;37799;52.390;6.136;2023-01-27T10:32:08;102876.13;;;4.84;100.00
37202;BME280;37799;52.390;6.136;2023-01-27T10:34:45;102872.94;;;4.93;100.00
37202;BME280;37799;52.390;6.136;2023-01-27T10:40:09;102868.09;;;4.73;100.00
37202;BME280;37799;52.390;6.136;2023-01-27T10:42:56;102876.13;;;4.84;100.00
37202;BME280;37799;52.390;6.136;2023-01-27T10:45:57;102880.47;;;4.87;100.00
37202;BME280;37799;52.390;6.136;2023-01-27T10:48:40;102877.59;;;4.76;100.00
37202;BME280;37799;52.390;6.136;2023-01-27T10:51:12;102876.34;;;4.92;100.00
37202;BME280;37799;52.390;6.136;2023-01-27T10:56:28;102888.44;;;5.24;100.00
37202;BME280;37799;52.390;6.136;2023-01-27T10:59:08;102883.75;;;5.40;100.00
37202;BME280;37799;52.390;6.136;2023-01-27T11:01:59;102873.50;;;5.41;100.00
37202;BME280;37799;52.390;6.136;2023-01-27T11:04:33;102879.78;;;5.51;100.00
37202;BME280;37799;52.390;6.136;2023-01-27T11:07:00;102872.97;;;5.53;100.00
37202;BME280;37799;52.390;6.136;2023-01-27T11:09:34;102869.69;;;5.58;100.00
37202;BME280;37799;52.390;6.136;2023-01-27T11:12:04;102874.63;;;5.51;100.00
37202;BME280;37799;52.390;6.136;2023-01-27T11:14:50;102862.34;;;5.72;100.00
37202;BME280;37799;52.390;6.136;2023-01-27T11:17:33;102871.56;;;5.64;100.00
37202;BME280;37799;52.390;6.136;2023-01-27T11:23:00;102865.47;;;5.60;100.00
37202;BME280;37799;52.390;6.136;2023-01-27T11:28:13;102858.91;;;5.40;100.00
37202;BME280;37799;52.390;6.136;2023-01-27T11:31:04;102859.00;;;5.43;100.00
37202;BME280;37799;52.390;6.136;2023-01-27T11:36:09;102854.47;;;5.66;100.00
37202;BME280;37799;52.390;6.136;2023-01-27T11:38:34;102849.91;;;5.56;100.00
37202;BME280;37799;52.390;6.136;2023-01-27T11:41:00;102857.78;;;5.60;100.00
37202;BME280;37799;52.390;6.136;2023-01-27T11:43:26;102850.59;;;5.49;100.00
37202;BME280;37799;52.390;6.136;2023-01-27T11:46:05;102848.34;;;5.61;100.00
37202;BME280;37799;52.390;6.136;2023-01-27T11:48:49;102857.28;;;5.44;100.00
37202;BME280;37799;52.390;6.136;2023-01-27T11:51:20;102851.50;;;5.51;100.00
37202;BME280;37799;52.390;6.136;2023-01-27T11:53:50;102851.25;;;5.42;100.00
37202;BME280;37799;52.390;6.136;2023-01-27T11:56:18;102839.38;;;5.47;100.00
37202;BME280;37799;52.390;6.136;2023-01-27T11:58:49;102851.84;;;5.63;100.00
37202;BME280;37799;52.390;6.136;2023-01-27T12:01:20;102841.69;;;5.69;100.00
37202;BME280;37799;52.390;6.136;2023-01-27T12:03:51;102847.75;;;5.71;100.00
37202;BME280;37799;52.390;6.136;2023-01-27T12:06:46;102837.06;;;5.87;100.00
37202;BME280;37799;52.390;6.136;2023-01-27T12:09:34;102842.78;;;5.77;100.00
37202;BME280;37799;52.390;6.136;2023-01-27T12:14:37;102823.47;;;5.91;100.00
37202;BME280;37799;52.390;6.136;2023-01-27T12:17:04;102830.38;;;5.94;100.00
37202;BME280;37799;52.390;6.136;2023-01-27T12:19:39;102826.88;;;5.90;100.00
37202;BME280;37799;52.390;6.136;2023-01-27T12:22:14;102823.84;;;5.74;100.00
37202;BME280;37799;52.390;6.136;2023-01-27T12:24:48;102823.72;;;5.69;100.00
37202;BME280;37799;52.390;6.136;2023-01-27T12:27:22;102821.00;;;5.63;100.00
37202;BME280;37799;52.390;6.136;2023-01-27T12:29:52;102832.66;;;5.50;100.00
37202;BME280;37799;52.390;6.136;2023-01-27T12:32:33;102824.66;;;5.40;100.00
37202;BME280;37799;52.390;6.136;2023-01-27T12:35:00;102832.16;;;5.33;100.00
37202;BME280;37799;52.390;6.136;2023-01-27T12:37:30;102827.38;;;5.46;100.00
37202;BME280;37799;52.390;6.136;2023-01-27T12:40:00;102827.28;;;5.43;100.00
37202;BME280;37799;52.390;6.136;2023-01-27T12:42:41;102826.06;;;5.28;100.00
37202;BME280;37799;52.390;6.136;2023-01-27T12:48:18;102823.66;;;5.35;100.00
37202;BME280;37799;52.390;6.136;2023-01-27T12:58:39;102821.91;;;5.33;100.00
37202;BME280;37799;52.390;6.136;2023-01-27T13:01:26;102823.13;;;5.16;100.00
37202;BME280;37799;52.390;6.136;2023-01-27T13:03:55;102813.13;;;5.25;100.00
37202;BME280;37799;52.390;6.136;2023-01-27T13:06:41;102816.00;;;5.06;100.00
37202;BME280;37799;52.390;6.136;2023-01-27T13:09:23;102824.31;;;4.97;100.00
37202;BME280;37799;52.390;6.136;2023-01-27T13:11:51;102821.84;;;5.00;100.00
37202;BME280;37799;52.390;6.136;2023-01-27T13:14:16;102821.56;;;4.91;100.00
37202;BME280;37799;52.390;6.136;2023-01-27T13:16:53;102809.84;;;4.99;100.00
37202;BME280;37799;52.390;6.136;2023-01-27T13:19:21;102814.56;;;4.86;100.00
37202;BME280;37799;52.390;6.136;2023-01-27T13:21:53;102812.72;;;4.82;100.00
37202;BME280;37799;52.390;6.136;2023-01-27T13:24:32;102813.81;;;4.90;100.00
37202;BME280;37799;52.390;6.136;2023-01-27T13:27:00;102815.41;;;4.85;100.00
37202;BME280;37799;52.390;6.136;2023-01-27T13:29:30;102817.06;;;4.83;100.00
37202;BME280;37799;52.390;6.136;2023-01-27T13:32:03;102818.88;;;4.87;100.00
37202;BME280;37799;52.390;6.136;2023-01-27T13:34:42;102824.56;;;4.77;100.00
37202;BME280;37799;52.390;6.136;2023-01-27T13:37:16;102831.47;;;4.79;100.00
37202;BME280;37799;52.390;6.136;2023-01-27T13:39:55;102822.97;;;4.82;100.00
37202;BME280;37799;52.390;6.136;2023-01-27T13:47:57;102828.50;;;4.65;100.00
37202;BME280;37799;52.390;6.136;2023-01-27T13:52:51;102825.31;;;4.72;100.00
37202;BME280;37799;52.390;6.136;2023-01-27T13:55:32;102830.44;;;4.72;100.00
37202;BME280;37799;52.390;6.136;2023-01-27T13:58:07;102832.75;;;4.65;100.00
37202;BME280;37799;52.390;6.136;2023-01-27T14:00:50;102839.03;;;4.74;100.00